This is the latest recevied weather packets stored in our database for station/object GW1546. If no packets are shown the sender has not sent any weather packets the latest 10 day(s).
| Time | Temp. | Humidity | Pressure | Rain* | Wind** | Luminosity | Snow |
|---|---|---|---|---|---|---|---|
| 1777330491 | 22.78° C | 63% | 987.1 hPa | 0 mm | - | - | - |
| 1777326860 | 26.11° C | 46% | 987.1 hPa | 0 mm | - | - | - |
| 1777326170 | 27.22° C | 35% | 987.1 hPa | 0 mm | - | - | - |
| 1777322919 | 28.33° C | 35% | 987.4 hPa | 0 mm | - | - | - |
| 1777320052 | 28.89° C | 32% | 987.8 hPa | 0 mm | - | - | - |
| 1777318247 | 28.89° C | 33% | 988.1 hPa | 0 mm | - | - | - |
| 1777314287 | 27.22° C | 40% | 989.5 hPa | 0 mm | - | - | - |
| 1777313213 | 26.67° C | 41% | 989.5 hPa | 0 mm | - | - | - |
| 1777307091 | 23.33° C | 47% | 991.5 hPa | 0 mm | - | - | - |
| 1777305250 | 22.78° C | 51% | 991.5 hPa | 0 mm | - | - | - |
| 1777303133 | 20.56° C | 55% | 991.8 hPa | 0 mm | - | - | - |
| 1777302731 | 20.56° C | 56% | 991.8 hPa | 0 mm | - | - | - |
| 1777301295 | 20° C | 59% | 991.8 hPa | 0 mm | - | - | - |
| 1777300948 | 19.44° C | 62% | 991.8 hPa | 0 mm | - | - | - |
| 1777300590 | 18.89° C | 62% | 991.8 hPa | 0 mm | - | - | - |
| 1777297734 | 15.56° C | 73% | 992.5 hPa | 0 mm | - | - | - |
| 1777297359 | 15.56° C | 74% | 992.5 hPa | 0 mm | - | - | - |
| 1777296286 | 14.44° C | 77% | 992.5 hPa | 0 mm | - | - | - |
| 1777295563 | 13.89° C | 78% | 992.5 hPa | 0 mm | - | - | - |
| 1777291238 | 8.89° C | 99% | 992.8 hPa | 0 mm | - | - | - |
| 1777289802 | 8.89° C | 99% | 993.2 hPa | 0 mm | - | - | - |
| 1777285834 | 8.89° C | 99% | 992.2 hPa | 0 mm | - | - | - |
| 1777283679 | 9.44° C | 99% | 991.8 hPa | 0 mm | - | - | - |
| 1777278630 | 9.44° C | 99% | 990.5 hPa | 0 mm | - | - | - |
| 1777276462 | 9.44° C | 99% | 990.1 hPa | 0 mm | - | - | - |
* Rain since midnight (hover to see other rain measurements)
** Current wind speed in m/s (hover to see current wind gust speed)